createdAt,value
2018-10-21T00:00:34.636Z,11.05
2018-10-21T00:03:04.559Z,11.12
2018-10-21T00:05:33.846Z,11.11
2018-10-21T00:08:03.102Z,11.13
2018-10-21T00:10:32.998Z,11.22
2018-10-21T00:13:01.900Z,11.16
2018-10-21T00:15:31.862Z,11.08
2018-10-21T00:18:00.591Z,11.13
2018-10-21T00:20:30.461Z,11.14
2018-10-21T00:23:00.248Z,11.12
2018-10-21T00:25:29.879Z,11.17
2018-10-21T00:27:59.792Z,11.16
2018-10-21T00:30:29.869Z,11.15
2018-10-21T00:32:59.244Z,11.08
2018-10-21T00:35:28.140Z,11.11
2018-10-21T00:37:57.063Z,11.15
2018-10-21T00:40:26.878Z,11.16
2018-10-21T00:42:55.826Z,11.14
2018-10-21T00:45:25.649Z,11.13
2018-10-21T00:47:55.484Z,11.12
2018-10-21T00:50:25.236Z,11.07
2018-10-21T00:52:55.200Z,11.09
2018-10-21T00:55:24.940Z,11.07
2018-10-21T00:57:54.824Z,11.07
2018-10-21T01:00:24.510Z,11.01
2018-10-21T01:02:54.333Z,11.02
2018-10-21T01:05:23.217Z,11.00
2018-10-21T01:07:52.040Z,11.03
2018-10-21T01:10:21.857Z,11.05
2018-10-21T01:12:51.660Z,11.06
2018-10-21T01:15:20.588Z,10.99
2018-10-21T01:17:50.892Z,10.96
2018-10-21T01:20:19.770Z,10.92
2018-10-21T01:22:49.254Z,11.05
2018-10-21T01:25:19.027Z,11.08
2018-10-21T01:27:47.944Z,11.01
2018-10-21T01:30:17.764Z,11.01
2018-10-21T01:32:46.681Z,11.01
2018-10-21T01:35:15.620Z,10.98
2018-10-21T01:37:45.448Z,10.97
2018-10-21T01:40:34.965Z,10.98
2018-10-21T01:43:05.093Z,10.98
2018-10-21T01:45:34.957Z,10.97
2018-10-21T01:48:05.857Z,10.97
2018-10-21T01:50:35.769Z,11.00
2018-10-21T01:53:06.719Z,10.99
2018-10-21T01:55:36.522Z,10.95
2018-10-21T01:58:06.196Z,10.89
2018-10-21T02:00:36.426Z,10.91
2018-10-21T02:03:05.493Z,10.91
2018-10-21T02:05:34.787Z,10.95
2018-10-21T02:08:04.409Z,10.90
2018-10-21T02:10:33.876Z,10.84
2018-10-21T02:13:02.693Z,10.90
2018-10-21T02:15:32.157Z,10.81
2018-10-21T02:18:01.060Z,10.86
2018-10-21T02:20:30.000Z,10.78
2018-10-21T02:22:58.904Z,10.74
2018-10-21T02:25:28.748Z,10.73
2018-10-21T02:27:58.486Z,10.76
2018-10-21T02:30:29.281Z,10.79
2018-10-21T02:32:59.644Z,10.73
2018-10-21T02:35:28.579Z,10.72
2018-10-21T02:37:58.212Z,10.68
2018-10-21T02:41:43.028Z,10.75
2018-10-21T02:44:15.060Z,10.67
2018-10-21T02:46:45.685Z,10.64
2018-10-21T02:49:16.289Z,10.62
2018-10-21T02:51:49.225Z,10.68
2018-10-21T02:54:22.557Z,10.59
2018-10-21T02:56:51.804Z,10.60
2018-10-21T02:59:21.046Z,10.56
2018-10-21T03:01:50.960Z,10.54
2018-10-21T03:04:21.049Z,10.52
2018-10-21T03:06:51.277Z,10.58
2018-10-21T03:09:21.136Z,10.46
2018-10-21T03:11:50.497Z,10.48
2018-10-21T03:14:19.400Z,10.52
2018-10-21T03:16:49.547Z,10.47
2018-10-21T03:19:19.241Z,10.54
2018-10-21T03:21:48.693Z,10.50
2018-10-21T03:24:18.470Z,10.45
2018-10-21T03:26:48.436Z,10.48
2018-10-21T03:29:18.202Z,10.56
2018-10-21T03:31:48.034Z,10.55
2018-10-21T03:34:18.289Z,10.60
2018-10-21T03:36:48.692Z,10.59
2018-10-21T03:39:17.574Z,10.60
2018-10-21T03:41:46.506Z,10.58
2018-10-21T03:44:15.457Z,10.55
2018-10-21T03:46:45.309Z,10.55
2018-10-21T03:49:14.741Z,10.60
2018-10-21T03:51:43.666Z,10.61
2018-10-21T03:54:13.136Z,10.63
2018-10-21T03:56:41.952Z,10.63
2018-10-21T03:59:10.862Z,10.63
2018-10-21T04:01:40.722Z,10.69
2018-10-21T04:04:10.702Z,10.61
2018-10-21T04:06:39.669Z,10.65
2018-10-21T04:09:09.027Z,10.62
2018-10-21T04:11:38.922Z,10.61
2018-10-21T04:14:08.732Z,10.59
2018-10-21T04:16:38.552Z,10.54
2018-10-21T04:19:08.755Z,10.44
2018-10-21T04:21:38.526Z,10.43
2018-10-21T04:24:07.404Z,10.40
2018-10-21T04:26:37.225Z,10.44
2018-10-21T04:29:06.852Z,10.31
2018-10-21T04:31:36.811Z,10.25
2018-10-21T04:34:05.885Z,10.26
2018-10-21T04:36:35.233Z,10.19
2018-10-21T04:39:41.145Z,10.17
2018-10-21T04:42:11.484Z,10.19
2018-10-21T04:44:41.375Z,10.11
2018-10-21T04:47:10.774Z,10.10
2018-10-21T04:49:39.570Z,9.99
2018-10-21T04:52:11.886Z,9.95
2018-10-21T04:54:44.604Z,9.81
2018-10-21T04:57:16.172Z,9.75
2018-10-21T04:59:46.598Z,9.70
2018-10-21T05:02:15.988Z,9.66
2018-10-21T05:04:45.813Z,9.60
2018-10-21T05:07:16.081Z,9.53
2018-10-21T05:09:46.655Z,9.52
2018-10-21T05:12:16.452Z,9.38
2018-10-21T05:14:46.316Z,9.35
2018-10-21T05:17:16.271Z,9.42
2018-10-21T05:19:49.188Z,9.42
2018-10-21T05:22:23.187Z,9.44
2018-10-21T05:24:52.249Z,9.45
2018-10-21T05:27:22.357Z,9.39
2018-10-21T05:29:52.598Z,9.32
2018-10-21T05:32:22.308Z,9.23
2018-10-21T05:34:51.256Z,9.16
2018-10-21T05:37:21.504Z,9.09
2018-10-21T05:39:52.932Z,9.08
2018-10-21T05:42:23.204Z,9.06
2018-10-21T05:44:53.000Z,8.98
2018-10-21T05:47:22.436Z,8.87
2018-10-21T05:49:51.260Z,8.83
2018-10-21T05:52:25.246Z,8.86
2018-10-21T05:54:55.082Z,8.76
2018-10-21T05:57:24.924Z,8.91
2018-10-21T05:59:53.933Z,8.92
2018-10-21T06:02:24.509Z,8.82
2018-10-21T06:04:54.030Z,8.87
2018-10-21T06:07:24.262Z,8.86
2018-10-21T06:09:53.333Z,8.85
2018-10-21T06:12:22.231Z,8.82
2018-10-21T06:14:52.158Z,8.69
2018-10-21T06:17:27.233Z,8.66
2018-10-21T06:21:01.636Z,8.68
2018-10-21T06:23:32.852Z,8.68
2018-10-21T06:26:01.690Z,8.72
2018-10-21T06:28:30.647Z,8.83
2018-10-21T06:31:00.471Z,8.83
2018-10-21T06:40:48.855Z,9.35
2018-10-21T06:43:28.721Z,9.47
2018-10-21T06:46:03.825Z,9.64
2018-10-21T06:48:33.194Z,9.76
2018-10-21T06:51:02.511Z,9.84
2018-10-21T06:53:31.498Z,9.81
2018-10-21T06:56:01.746Z,9.98
2018-10-21T06:58:32.028Z,9.90
2018-10-21T07:01:01.797Z,9.99
2018-10-21T07:03:32.140Z,10.18
2018-10-21T07:06:14.584Z,10.29
2018-10-21T07:08:44.880Z,10.81
2018-10-21T07:11:14.062Z,12.65
2018-10-21T07:13:44.104Z,14.00
2018-10-21T07:16:14.489Z,15.08
2018-10-21T07:18:44.076Z,14.69
2018-10-21T07:21:13.081Z,15.71
2018-10-21T07:23:42.950Z,17.94
2018-10-21T07:26:11.985Z,20.26
2018-10-21T07:28:40.929Z,21.29
2018-10-21T07:31:12.529Z,22.77
2018-10-21T07:33:42.414Z,23.53
2018-10-21T07:36:12.389Z,23.75
2018-10-21T07:38:41.180Z,24.70
2018-10-21T07:41:10.889Z,24.64
2018-10-21T07:43:39.727Z,25.10
2018-10-21T07:46:08.713Z,25.36
2018-10-21T07:48:37.869Z,25.49
2018-10-21T07:51:07.132Z,26.01
2018-10-21T07:53:36.627Z,25.69
2018-10-21T07:56:06.553Z,26.04
2018-10-21T07:58:36.503Z,26.70
2018-10-21T08:01:06.433Z,26.70
2018-10-21T08:03:35.247Z,26.27
2018-10-21T08:06:26.148Z,27.04
2018-10-21T08:08:55.973Z,26.76
2018-10-21T08:11:25.656Z,26.18
2018-10-21T08:13:54.601Z,26.63
2018-10-21T08:16:24.377Z,26.15
2018-10-21T08:18:54.409Z,26.59
2018-10-21T08:21:24.280Z,26.62
2018-10-21T08:23:54.099Z,26.56
2018-10-21T08:26:22.871Z,26.06
2018-10-21T08:28:52.345Z,25.15
2018-10-21T08:31:22.158Z,25.11
2018-10-21T08:33:51.472Z,25.40
2018-10-21T08:36:21.174Z,26.07
2018-10-21T08:38:50.656Z,26.46
2018-10-21T08:41:20.456Z,27.22
2018-10-21T08:43:50.309Z,27.47
2018-10-21T08:46:19.819Z,28.24
2018-10-21T08:48:48.652Z,28.31
2018-10-21T08:51:17.321Z,29.02
2018-10-21T08:53:47.430Z,30.24
2018-10-21T08:56:17.093Z,30.61
2018-10-21T08:58:46.865Z,31.67
2018-10-21T09:01:16.764Z,32.50
2018-10-21T09:03:45.657Z,32.45
2018-10-21T09:06:15.532Z,32.31
2018-10-21T09:08:44.904Z,32.47
2018-10-21T09:11:13.832Z,32.19
2018-10-21T09:13:43.528Z,31.94
2018-10-21T09:16:13.506Z,31.93
2018-10-21T09:18:42.382Z,32.35
2018-10-21T09:21:11.283Z,32.25
2018-10-21T09:23:41.211Z,32.90
2018-10-21T09:26:10.073Z,31.56
2018-10-21T09:28:39.880Z,31.88
2018-10-21T09:31:10.814Z,31.68
2018-10-21T09:33:39.716Z,32.31
2018-10-21T09:36:09.416Z,32.19
2018-10-21T09:38:39.247Z,31.50
2018-10-21T09:41:08.199Z,31.54
2018-10-21T09:43:37.920Z,31.33
2018-10-21T09:46:07.654Z,31.53
2018-10-21T09:48:36.516Z,30.79
2018-10-21T09:51:06.412Z,30.10
2018-10-21T09:53:35.315Z,30.18
2018-10-21T09:56:04.234Z,29.71
2018-10-21T09:58:33.798Z,30.02
2018-10-21T10:01:07.905Z,29.85
2018-10-21T10:03:37.829Z,29.31
2018-10-21T10:06:07.678Z,29.34
2018-10-21T10:08:36.642Z,29.20
2018-10-21T10:11:05.599Z,28.77
2018-10-21T10:13:34.564Z,28.70
2018-10-21T10:16:04.041Z,28.42
2018-10-21T10:18:32.961Z,28.67
2018-10-21T10:21:02.858Z,27.39
2018-10-21T10:23:32.622Z,25.80
2018-10-21T10:26:01.564Z,24.44
2018-10-21T10:28:31.300Z,24.44
2018-10-21T10:31:00.218Z,24.66
2018-10-21T10:33:29.124Z,24.89
2018-10-21T10:35:57.952Z,25.48
2018-10-21T10:38:26.805Z,25.89
2018-10-21T10:40:56.653Z,26.27
2018-10-21T10:43:26.627Z,26.07
2018-10-21T10:45:55.617Z,26.17
2018-10-21T10:48:25.452Z,26.50
2018-10-21T10:50:54.839Z,26.25
2018-10-21T10:53:24.678Z,26.23
2018-10-21T10:55:54.476Z,25.81
2018-10-21T10:58:24.180Z,24.36
2018-10-21T11:00:53.841Z,23.35
2018-10-21T11:03:23.622Z,22.16
2018-10-21T11:05:53.784Z,22.19
2018-10-21T11:08:30.094Z,22.46
2018-10-21T11:10:59.478Z,22.23
2018-10-21T11:13:29.269Z,21.49
2018-10-21T11:15:59.156Z,21.05
2018-10-21T11:18:28.068Z,20.86
2018-10-21T11:21:04.883Z,21.05
2018-10-21T11:23:38.690Z,20.82
2018-10-21T11:26:15.583Z,20.48
2018-10-21T11:28:44.605Z,20.66
2018-10-21T11:31:14.476Z,21.30
2018-10-21T11:33:57.339Z,21.83
2018-10-21T11:36:28.340Z,21.96
2018-10-21T11:38:58.222Z,21.94
2018-10-21T11:41:28.153Z,21.72
2018-10-21T11:44:00.533Z,21.18
2018-10-21T11:46:29.654Z,20.68
2018-10-21T11:48:58.560Z,20.38
2018-10-21T11:51:27.519Z,20.41
2018-10-21T11:53:57.309Z,20.55
2018-10-21T11:56:27.021Z,20.20
2018-10-21T11:58:56.456Z,20.14
2018-10-21T12:01:25.378Z,19.84
2018-10-21T12:03:55.275Z,19.44
2018-10-21T12:06:24.234Z,19.16
2018-10-21T12:08:53.162Z,19.66
2018-10-21T12:11:22.500Z,20.58
2018-10-21T12:13:51.381Z,21.24
2018-10-21T12:16:21.618Z,21.99
2018-10-21T12:18:51.900Z,22.42
2018-10-21T12:21:20.946Z,23.28
2018-10-21T12:23:50.847Z,23.64
2018-10-21T12:26:21.222Z,23.57
2018-10-21T12:28:50.121Z,23.38
2018-10-21T12:31:19.933Z,23.13
2018-10-21T12:33:48.780Z,23.25
2018-10-21T12:36:18.986Z,22.79
2018-10-21T12:38:48.850Z,22.63
2018-10-21T12:41:18.640Z,21.98
2018-10-21T12:43:47.355Z,21.50
2018-10-21T12:46:17.141Z,19.92
2018-10-21T12:48:45.997Z,19.69
2018-10-21T12:51:15.336Z,19.40
2018-10-21T12:53:44.223Z,19.94
2018-10-21T12:56:13.903Z,20.84
2018-10-21T12:58:44.200Z,21.24
2018-10-21T13:01:14.647Z,20.48
2018-10-21T13:03:43.559Z,19.28
2018-10-21T13:06:13.807Z,19.48
2018-10-21T13:08:44.139Z,20.57
2018-10-21T13:11:13.085Z,21.56
2018-10-21T13:13:47.317Z,22.68
2018-10-21T13:16:17.811Z,23.37
2018-10-21T13:18:55.903Z,24.21
2018-10-21T13:21:24.855Z,24.21
2018-10-21T13:23:53.774Z,24.66
2018-10-21T13:26:24.555Z,24.34
2018-10-21T13:28:53.909Z,24.73
2018-10-21T13:31:23.268Z,25.07
2018-10-21T13:33:53.119Z,25.21
2018-10-21T13:36:23.844Z,25.10
2018-10-21T13:39:02.965Z,25.13
2018-10-21T13:41:32.069Z,25.00
2018-10-21T13:44:01.770Z,24.47
2018-10-21T13:46:32.081Z,23.43
2018-10-21T13:49:00.947Z,22.48
2018-10-21T13:51:43.905Z,21.75
2018-10-21T13:54:17.526Z,21.06
2018-10-21T13:56:46.505Z,20.48
2018-10-21T13:59:15.757Z,20.08
2018-10-21T14:01:44.573Z,19.78
2018-10-21T14:04:13.524Z,19.37
2018-10-21T14:06:42.866Z,19.17
2018-10-21T14:09:13.593Z,18.81
2018-10-21T14:11:42.601Z,18.60
2018-10-21T14:14:12.696Z,18.41
2018-10-21T14:16:42.658Z,18.27
2018-10-21T14:19:11.517Z,17.97
2018-10-21T14:21:41.723Z,17.73
2018-10-21T14:24:10.669Z,17.47
2018-10-21T14:26:39.591Z,17.13
2018-10-21T14:29:09.397Z,16.76
2018-10-21T14:31:39.165Z,16.25
2018-10-21T14:34:07.936Z,16.00
2018-10-21T14:36:37.818Z,15.75
2018-10-21T14:39:11.084Z,15.57
2018-10-21T14:41:40.240Z,15.30
2018-10-21T14:44:09.041Z,15.38
2018-10-21T14:46:39.157Z,15.51
2018-10-21T14:49:08.937Z,15.64
2018-10-21T14:51:37.849Z,15.54
2018-10-21T14:54:08.010Z,15.55
2018-10-21T14:56:40.595Z,15.61
2018-10-21T14:59:09.601Z,15.81
2018-10-21T15:01:39.361Z,15.89
2018-10-21T15:04:14.638Z,15.80
2018-10-21T15:06:44.835Z,15.62
2018-10-21T15:09:14.781Z,15.53
2018-10-21T15:14:57.312Z,15.52
2018-10-21T15:17:29.393Z,15.45
2018-10-21T15:19:58.572Z,15.57
2018-10-21T15:25:14.888Z,15.61
2018-10-21T15:27:45.305Z,15.69
2018-10-21T15:30:16.540Z,15.70
2018-10-21T15:32:45.421Z,15.63
2018-10-21T15:35:15.105Z,15.56
2018-10-21T15:37:45.047Z,15.49
2018-10-21T15:40:15.078Z,15.52
2018-10-21T15:42:44.430Z,15.34
2018-10-21T15:45:13.294Z,15.34
2018-10-21T15:47:43.695Z,15.44
2018-10-21T15:50:13.619Z,15.28
2018-10-21T15:52:42.501Z,15.26
2018-10-21T15:55:12.373Z,15.22
2018-10-21T15:57:42.168Z,15.18
2018-10-21T16:00:12.834Z,15.06
2018-10-21T16:02:42.188Z,15.02
2018-10-21T16:05:11.745Z,14.93
2018-10-21T16:07:41.622Z,14.87
2018-10-21T16:10:10.969Z,14.74
2018-10-21T16:12:40.131Z,14.59
2018-10-21T16:15:14.693Z,14.54
2018-10-21T16:17:44.240Z,14.44
2018-10-21T16:20:13.921Z,14.36
2018-10-21T16:22:43.837Z,14.32
2018-10-21T16:25:16.595Z,14.28
2018-10-21T16:27:47.700Z,14.17
2018-10-21T16:30:17.332Z,14.06
2018-10-21T16:32:46.385Z,13.98
2018-10-21T16:35:15.489Z,13.89
2018-10-21T16:37:45.413Z,13.80
2018-10-21T16:40:15.655Z,13.74
2018-10-21T16:42:44.577Z,13.58
2018-10-21T16:45:15.255Z,13.48
2018-10-21T16:47:44.104Z,13.34
2018-10-21T16:50:15.764Z,13.25
2018-10-21T16:52:46.459Z,13.27
2018-10-21T16:55:16.166Z,13.06
2018-10-21T16:57:46.077Z,12.96
2018-10-21T17:00:18.164Z,12.87
2018-10-21T17:02:47.021Z,12.77
2018-10-21T17:05:16.894Z,12.74
2018-10-21T17:07:45.669Z,12.58
2018-10-21T17:10:15.756Z,12.50
2018-10-21T17:12:44.441Z,12.37
2018-10-21T17:15:14.169Z,12.32
2018-10-21T17:17:44.325Z,12.23
2018-10-21T17:20:14.886Z,12.13
2018-10-21T17:22:45.087Z,12.03
2018-10-21T17:25:14.365Z,11.93
2018-10-21T17:27:43.284Z,11.83
2018-10-21T17:30:15.388Z,11.80
2018-10-21T17:32:45.688Z,11.71
2018-10-21T17:35:15.425Z,11.68
2018-10-21T17:37:45.344Z,11.62
2018-10-21T17:40:15.557Z,11.62
2018-10-21T17:42:44.404Z,11.56
2018-10-21T17:45:15.060Z,11.51
2018-10-21T17:47:44.905Z,11.33
2018-10-21T17:50:15.313Z,11.35
2018-10-21T17:52:44.568Z,11.35
2018-10-21T17:55:14.667Z,11.31
2018-10-21T17:57:43.340Z,11.32
2018-10-21T18:00:13.935Z,11.29
2018-10-21T18:02:43.817Z,11.27
2018-10-21T18:05:13.896Z,11.28
2018-10-21T18:07:43.128Z,11.28
2018-10-21T18:10:13.160Z,11.22
2018-10-21T18:12:41.901Z,11.28
2018-10-21T18:15:11.480Z,11.30
2018-10-21T18:24:45.069Z,11.10
2018-10-21T18:27:14.973Z,11.12
2018-10-21T18:29:44.812Z,11.14
2018-10-21T18:32:15.028Z,11.13
2018-10-21T18:34:44.979Z,11.12
2018-10-21T18:37:14.824Z,11.01
2018-10-21T18:39:43.608Z,11.02
2018-10-21T18:42:13.425Z,10.98
2018-10-21T18:44:43.212Z,10.96
2018-10-21T18:47:12.928Z,10.91
2018-10-21T18:49:41.841Z,10.88
2018-10-21T18:52:11.710Z,10.73
2018-10-21T18:54:40.652Z,10.69
2018-10-21T18:57:10.960Z,10.61
2018-10-21T18:59:40.657Z,10.56
2018-10-21T19:02:09.585Z,10.50
2018-10-21T19:04:39.432Z,10.44
2018-10-21T19:07:09.889Z,10.41
2018-10-21T19:09:38.748Z,10.27
2018-10-21T19:12:07.645Z,10.09
2018-10-21T19:14:36.564Z,10.07
2018-10-21T19:17:06.297Z,9.94
2018-10-21T19:19:36.201Z,9.84
2018-10-21T19:22:05.168Z,9.78
2018-10-21T19:24:34.089Z,9.72
2018-10-21T19:27:03.000Z,9.70
2018-10-21T19:29:31.922Z,9.50
2018-10-21T19:32:01.578Z,9.47
2018-10-21T19:34:31.432Z,9.37
2018-10-21T19:37:01.356Z,9.28
2018-10-21T19:39:30.279Z,9.17
2018-10-21T19:42:00.095Z,9.11
2018-10-21T19:44:29.900Z,9.09
2018-10-21T19:46:59.665Z,9.04
2018-10-21T19:49:28.561Z,8.98
2018-10-21T19:51:58.327Z,8.91
2018-10-21T19:54:28.109Z,8.93
2018-10-21T19:56:57.875Z,8.88
2018-10-21T19:59:26.628Z,8.82
2018-10-21T20:01:56.084Z,8.72
2018-10-21T20:04:25.852Z,8.78
2018-10-21T20:06:55.064Z,8.69
2018-10-21T20:09:24.945Z,8.71
2018-10-21T20:11:54.607Z,8.55
2018-10-21T20:14:23.548Z,8.47
2018-10-21T20:16:52.441Z,8.52
2018-10-21T20:19:21.405Z,8.46
2018-10-21T20:21:50.432Z,8.35
2018-10-21T20:24:19.275Z,8.38
2018-10-21T20:26:48.869Z,8.40
2018-10-21T20:29:17.744Z,8.32
2018-10-21T20:31:47.449Z,8.26
2018-10-21T20:34:17.387Z,8.30
2018-10-21T20:36:46.245Z,8.22
2018-10-21T20:39:15.679Z,8.16
2018-10-21T20:41:45.421Z,8.09
2018-10-21T20:44:14.320Z,8.16
2018-10-21T20:46:43.173Z,8.11
2018-10-21T20:49:12.935Z,8.08
2018-10-21T20:51:42.672Z,8.04
2018-10-21T20:54:11.498Z,8.01
2018-10-21T20:56:40.440Z,7.95
2018-10-21T20:59:10.270Z,7.86
2018-10-21T21:01:40.105Z,7.76
2018-10-21T21:04:10.680Z,7.79
2018-10-21T21:06:39.624Z,7.83
2018-10-21T21:09:09.833Z,7.82
2018-10-21T21:11:39.570Z,7.81
2018-10-21T21:14:09.689Z,7.80
2018-10-21T21:16:40.741Z,7.77
2018-10-21T21:19:10.802Z,7.74
2018-10-21T21:21:40.636Z,7.63
2018-10-21T21:24:11.364Z,7.69
2018-10-21T21:26:40.164Z,7.67
2018-10-21T21:29:11.232Z,7.62
2018-10-21T21:31:41.065Z,7.54
2018-10-21T21:34:11.640Z,7.55
2018-10-21T21:36:40.789Z,7.53
2018-10-21T21:39:12.484Z,7.46
2018-10-21T21:41:43.671Z,7.45
2018-10-21T21:44:15.036Z,7.41
2018-10-21T21:46:44.717Z,7.23
2018-10-21T21:49:14.339Z,7.23
2018-10-21T21:51:44.151Z,7.26
2018-10-21T21:54:14.714Z,7.26
2018-10-21T21:56:45.079Z,7.23
2018-10-21T21:59:14.836Z,7.07
2018-10-21T22:01:44.572Z,7.06
2018-10-21T22:04:14.347Z,7.05
2018-10-21T22:06:43.115Z,7.05
2018-10-21T22:09:13.320Z,7.03
2018-10-21T22:11:42.976Z,7.07
2018-10-21T22:14:12.792Z,7.04
2018-10-21T22:16:42.570Z,7.04
2018-10-21T22:19:12.429Z,7.04
2018-10-21T22:21:41.336Z,7.01
2018-10-21T22:24:11.320Z,6.93
2018-10-21T22:26:40.190Z,6.90
2018-10-21T22:29:10.050Z,6.87
2018-10-21T22:31:39.995Z,6.84
2018-10-21T22:34:08.974Z,6.80
2018-10-21T22:36:37.817Z,6.78
2018-10-21T22:39:07.915Z,6.72
2018-10-21T22:41:37.244Z,6.73
2018-10-21T22:44:06.672Z,6.70
2018-10-21T22:46:36.536Z,6.71
2018-10-21T22:49:05.911Z,6.68
2018-10-21T22:51:35.671Z,6.73
2018-10-21T22:54:04.541Z,6.50
2018-10-21T22:56:33.494Z,6.50
2018-10-21T22:59:02.376Z,6.44
2018-10-21T23:01:31.290Z,6.42
2018-10-21T23:04:00.647Z,6.46
2018-10-21T23:06:29.508Z,6.48
2018-10-21T23:08:58.400Z,6.25
2018-10-21T23:11:27.888Z,6.09
2018-10-21T23:13:56.822Z,6.07
2018-10-21T23:16:26.725Z,6.07
2018-10-21T23:19:10.874Z,6.01
2018-10-21T23:21:40.588Z,5.95
2018-10-21T23:24:10.330Z,6.03
2018-10-21T23:26:39.235Z,6.09
2018-10-21T23:29:08.797Z,6.09
2018-10-21T23:31:38.524Z,6.12
2018-10-21T23:34:08.367Z,6.12
2018-10-21T23:36:37.253Z,6.15
2018-10-21T23:39:06.958Z,6.18
2018-10-21T23:41:36.713Z,6.14
2018-10-21T23:44:06.527Z,6.15
2018-10-21T23:46:36.251Z,6.07
2018-10-21T23:49:05.155Z,6.03
2018-10-21T23:51:35.012Z,6.05
2018-10-21T23:54:04.634Z,6.10
2018-10-21T23:56:33.496Z,6.11
2018-10-21T23:59:03.370Z,6.05
